WZZ1BD EDDH-LBWN
Flight info
| Callsign | WZZ1BD |
|---|---|
| Flight time | N/A |
| Altitude | 35000 |
| Route | RAMAR6G/33 RAMAR DCT PABMI DCT RADEL DCT SUBIX L867 REGLI DCT REVMA DCT PITOK DCT NARKA DCT RASUB DCT BULEN L744 EXIGA EXIG4D |
| Aircraft | A21N/M-SDE2E3FGHIRWXY/LB1 |
Departure
| Time | 2026-04-25 09:01 |
|---|---|
| Airport | Hamburg Helmut Schmidt Airport (EDDH) |
Arrival
| Time | N/A |
|---|---|
| Airport | Varna Airport (LBWN) |
| Time | Latitude | Longitude | Altitude | Speed | Heading |
|---|---|---|---|---|---|
| 2026-04-25 08:32 | 53.62738 | 10.00305 | 54 ft | 0 kts | 62° |
| 2026-04-25 08:53 | 53.62733 | 10.00289 | 52 ft | 4 kts | 65° |
| 2026-04-25 08:53 | 53.62723 | 10.00246 | 48 ft | 4 kts | 77° |
| 2026-04-25 08:54 | 53.62721 | 10.00203 | 49 ft | 4 kts | 101° |
| 2026-04-25 08:54 | 53.62731 | 10.00170 | 49 ft | 3 kts | 151° |
| 2026-04-25 08:54 | 53.62737 | 10.00165 | 49 ft | 0 kts | 153° |
| 2026-04-25 08:58 | 53.62729 | 10.00171 | 48 ft | 3 kts | 153° |
| 2026-04-25 08:58 | 53.62706 | 10.00192 | 49 ft | 5 kts | 153° |
| 2026-04-25 08:58 | 53.62673 | 10.00220 | 54 ft | 6 kts | 153° |
| 2026-04-25 08:59 | 53.62632 | 10.00255 | 54 ft | 7 kts | 153° |
| 2026-04-25 08:59 | 53.62584 | 10.00240 | 54 ft | 8 kts | 231° |
| 2026-04-25 08:59 | 53.62554 | 10.00150 | 52 ft | 9 kts | 246° |
| 2026-04-25 08:59 | 53.62541 | 10.00043 | 53 ft | 11 kts | 306° |
| 2026-04-25 09:00 | 53.62606 | 9.99969 | 52 ft | 15 kts | 332° |
| 2026-04-25 09:00 | 53.62885 | 9.99730 | 50 ft | 79 kts | 333° |
| 2026-04-25 09:00 | 53.63578 | 9.99131 | 53 ft | 144 kts | 333° |
| 2026-04-25 09:00 | 53.64579 | 9.98267 | 461 ft | 164 kts | 328° |
| 2026-04-25 09:01 | 53.65600 | 9.97409 | 1314 ft | 166 kts | 328° |
| 2026-04-25 09:01 | 53.66616 | 9.96489 | 2156 ft | 166 kts | 327° |
| 2026-04-25 09:01 | 53.67705 | 9.95541 | 2588 ft | 189 kts | 329° |
| 2026-04-25 09:01 | 53.69012 | 9.94664 | 2918 ft | 217 kts | 346° |
| 2026-04-25 09:02 | 53.70561 | 9.94559 | 3631 ft | 226 kts | 356° |
| 2026-04-25 09:02 | 53.72149 | 9.94657 | 4454 ft | 231 kts | 1° |
| 2026-04-25 09:02 | 53.73666 | 9.95620 | 5207 ft | 250 kts | 30° |
| 2026-04-25 09:02 | 53.74816 | 9.98021 | 5693 ft | 279 kts | 57° |
| 2026-04-25 09:03 | 53.75608 | 10.01067 | 6417 ft | 286 kts | 60° |
| 2026-04-25 09:03 | 53.76397 | 10.04179 | 7147 ft | 289 kts | 60° |
| 2026-04-25 09:03 | 53.77226 | 10.07291 | 7854 ft | 292 kts | 59° |
| 2026-04-25 09:03 | 53.78092 | 10.10429 | 8560 ft | 296 kts | 58° |
| 2026-04-25 09:04 | 53.78981 | 10.13594 | 9246 ft | 300 kts | 57° |
| 2026-04-25 09:04 | 53.79887 | 10.16805 | 9926 ft | 305 kts | 57° |
| 2026-04-25 09:04 | 53.80819 | 10.20082 | 10443 ft | 315 kts | 57° |
| 2026-04-25 09:04 | 53.81781 | 10.23450 | 10746 ft | 331 kts | 58° |
| 2026-04-25 09:05 | 53.82811 | 10.27047 | 11012 ft | 349 kts | 58° |
| 2026-04-25 09:05 | 53.83884 | 10.30849 | 11252 ft | 367 kts | 61° |
| 2026-04-25 09:05 | 53.84581 | 10.35105 | 11724 ft | 385 kts | 80° |
| 2026-04-25 09:05 | 53.84456 | 10.39679 | 12354 ft | 394 kts | 99° |
| 2026-04-25 09:06 | 53.83782 | 10.44205 | 13011 ft | 398 kts | 104° |
| 2026-04-25 09:06 | 53.83040 | 10.48750 | 13660 ft | 402 kts | 104° |
| 2026-04-25 09:06 | 53.82336 | 10.53351 | 14251 ft | 406 kts | 103° |
| 2026-04-25 09:06 | 53.81670 | 10.57960 | 14842 ft | 409 kts | 102° |
| 2026-04-25 09:07 | 53.81013 | 10.62664 | 15432 ft | 413 kts | 102° |
| 2026-04-25 09:07 | 53.80344 | 10.67398 | 16029 ft | 416 kts | 104° |
| 2026-04-25 09:07 | 53.79260 | 10.71945 | 16589 ft | 419 kts | 120° |
| 2026-04-25 09:07 | 53.77725 | 10.76160 | 17178 ft | 422 kts | 123° |
| 2026-04-25 09:08 | 53.76133 | 10.80354 | 17753 ft | 426 kts | 123° |
| 2026-04-25 09:08 | 53.74538 | 10.84588 | 18315 ft | 429 kts | 123° |
| 2026-04-25 09:08 | 53.72938 | 10.88864 | 18823 ft | 432 kts | 123° |
| 2026-04-25 09:08 | 53.71349 | 10.93116 | 19314 ft | 435 kts | 124° |
| 2026-04-25 09:09 | 53.69619 | 10.97394 | 19812 ft | 437 kts | 126° |
| 2026-04-25 09:09 | 53.67895 | 11.01556 | 20284 ft | 440 kts | 126° |
| 2026-04-25 09:09 | 53.66140 | 11.05796 | 20754 ft | 443 kts | 126° |
| 2026-04-25 09:09 | 53.64363 | 11.10058 | 21237 ft | 446 kts | 126° |
| 2026-04-25 09:10 | 53.62576 | 11.14347 | 21697 ft | 448 kts | 126° |
| 2026-04-25 09:10 | 53.60777 | 11.18656 | 22162 ft | 451 kts | 126° |
| 2026-04-25 09:10 | 53.58963 | 11.22980 | 22615 ft | 454 kts | 126° |
| 2026-04-25 09:10 | 53.57140 | 11.27326 | 23075 ft | 456 kts | 126° |
| 2026-04-25 09:11 | 53.53480 | 11.36027 | 23898 ft | 461 kts | 126° |
| 2026-04-25 09:11 | 53.51627 | 11.40441 | 24268 ft | 463 kts | 126° |
| 2026-04-25 09:11 | 53.49759 | 11.44872 | 24634 ft | 465 kts | 126° |
| 2026-04-25 09:12 | 53.47891 | 11.49319 | 24979 ft | 468 kts | 126° |
| 2026-04-25 09:12 | 53.46010 | 11.53795 | 25321 ft | 470 kts | 126° |
| 2026-04-25 09:12 | 53.44116 | 11.58277 | 25689 ft | 472 kts | 126° |
| 2026-04-25 09:12 | 53.42212 | 11.62767 | 26047 ft | 474 kts | 126° |
| 2026-04-25 09:13 | 53.40362 | 11.67356 | 26386 ft | 476 kts | 121° |
| 2026-04-25 09:13 | 53.38789 | 11.72257 | 26735 ft | 479 kts | 117° |
| 2026-04-25 09:13 | 53.37288 | 11.77153 | 27059 ft | 481 kts | 117° |
| 2026-04-25 09:13 | 53.35759 | 11.82142 | 27385 ft | 483 kts | 117° |
| 2026-04-25 09:14 | 53.34215 | 11.87150 | 27712 ft | 485 kts | 118° |
| 2026-04-25 09:14 | 53.32654 | 11.92173 | 28025 ft | 487 kts | 118° |
| 2026-04-25 09:14 | 53.31085 | 11.97201 | 28329 ft | 489 kts | 118° |
| 2026-04-25 09:14 | 53.29510 | 12.02257 | 28642 ft | 491 kts | 118° |
| 2026-04-25 09:15 | 53.27925 | 12.07336 | 28945 ft | 493 kts | 118° |
| 2026-04-25 09:15 | 53.26331 | 12.12418 | 29230 ft | 495 kts | 118° |
| 2026-04-25 09:15 | 53.24749 | 12.17462 | 29528 ft | 497 kts | 118° |
| 2026-04-25 09:15 | 53.23140 | 12.22577 | 29781 ft | 499 kts | 118° |
| 2026-04-25 09:16 | 53.21522 | 12.27710 | 30079 ft | 500 kts | 118° |
| 2026-04-25 09:16 | 53.19903 | 12.32839 | 30366 ft | 500 kts | 118° |
| 2026-04-25 09:16 | 53.18279 | 12.37969 | 30671 ft | 499 kts | 118° |
| 2026-04-25 09:16 | 53.16656 | 12.43081 | 30959 ft | 498 kts | 118° |
| 2026-04-25 09:17 | 53.13410 | 12.53280 | 31501 ft | 498 kts | 118° |
| 2026-04-25 09:17 | 53.11812 | 12.58290 | 31749 ft | 497 kts | 118° |
| 2026-04-25 09:17 | 53.10189 | 12.63366 | 32005 ft | 497 kts | 118° |
| 2026-04-25 09:18 | 53.08562 | 12.68436 | 32253 ft | 497 kts | 118° |
| 2026-04-25 09:18 | 53.06930 | 12.73508 | 32500 ft | 496 kts | 118° |
| 2026-04-25 09:18 | 53.05304 | 12.78562 | 32725 ft | 496 kts | 118° |
| 2026-04-25 09:18 | 53.03678 | 12.83606 | 32960 ft | 495 kts | 118° |
| 2026-04-25 09:19 | 53.02047 | 12.88650 | 33188 ft | 495 kts | 118° |
| 2026-04-25 09:19 | 53.00419 | 12.93678 | 33395 ft | 495 kts | 118° |
| 2026-04-25 09:19 | 52.98790 | 12.98700 | 33603 ft | 494 kts | 119° |
| 2026-04-25 09:19 | 52.97174 | 13.03661 | 33790 ft | 494 kts | 119° |
| 2026-04-25 09:20 | 52.95540 | 13.08667 | 33976 ft | 494 kts | 119° |
| 2026-04-25 09:20 | 52.93799 | 13.13572 | 34139 ft | 493 kts | 122° |
| 2026-04-25 09:20 | 52.91995 | 13.18404 | 34304 ft | 493 kts | 123° |
| 2026-04-25 09:20 | 52.90183 | 13.23225 | 34455 ft | 492 kts | 123° |
| 2026-04-25 09:21 | 52.88373 | 13.28028 | 34607 ft | 492 kts | 123° |
| 2026-04-25 09:21 | 52.86563 | 13.32833 | 34738 ft | 491 kts | 123° |
| 2026-04-25 09:21 | 52.84754 | 13.37624 | 34883 ft | 491 kts | 123° |
| 2026-04-25 09:21 | 52.82965 | 13.42352 | 35013 ft | 491 kts | 123° |
| 2026-04-25 09:22 | 52.81152 | 13.47137 | 35065 ft | 491 kts | 123° |
| 2026-04-25 09:22 | 52.77529 | 13.56686 | 35034 ft | 490 kts | 123° |
| 2026-04-25 09:23 | 52.73896 | 13.66202 | 35011 ft | 489 kts | 123° |
| 2026-04-25 09:23 | 52.70265 | 13.75687 | 35011 ft | 489 kts | 123° |
| 2026-04-25 09:24 | 52.66658 | 13.85090 | 35008 ft | 488 kts | 123° |
| 2026-04-25 09:24 | 52.63022 | 13.94518 | 35017 ft | 487 kts | 123° |
| 2026-04-25 09:25 | 52.59379 | 14.03919 | 35009 ft | 487 kts | 123° |
| 2026-04-25 09:25 | 52.55739 | 14.13291 | 35019 ft | 486 kts | 123° |
| 2026-04-25 09:26 | 52.52117 | 14.22583 | 35017 ft | 486 kts | 123° |
| 2026-04-25 09:26 | 52.48469 | 14.31900 | 35006 ft | 485 kts | 123° |
| 2026-04-25 09:27 | 52.44819 | 14.41196 | 35017 ft | 485 kts | 123° |
| 2026-04-25 09:27 | 52.41162 | 14.50479 | 35008 ft | 484 kts | 123° |
| 2026-04-25 09:28 | 52.37322 | 14.59422 | 35001 ft | 483 kts | 134° |
| 2026-04-25 09:28 | 52.32493 | 14.67009 | 35022 ft | 481 kts | 140° |
| 2026-04-25 09:29 | 52.27557 | 14.74395 | 35016 ft | 481 kts | 139° |
| 2026-04-25 09:29 | 52.22644 | 14.81812 | 35011 ft | 481 kts | 139° |
| 2026-04-25 09:30 | 52.17727 | 14.89237 | 35020 ft | 482 kts | 139° |
| 2026-04-25 09:30 | 52.12834 | 14.96598 | 35019 ft | 482 kts | 139° |
| 2026-04-25 09:31 | 52.07895 | 15.03999 | 35015 ft | 483 kts | 139° |
| 2026-04-25 09:31 | 52.02941 | 15.11397 | 35009 ft | 484 kts | 140° |
| 2026-04-25 09:32 | 51.97976 | 15.18792 | 35010 ft | 485 kts | 140° |
| 2026-04-25 09:32 | 51.92994 | 15.26200 | 35014 ft | 487 kts | 140° |
| 2026-04-25 09:33 | 51.88031 | 15.33552 | 35008 ft | 488 kts | 140° |
| 2026-04-25 09:33 | 51.83010 | 15.40965 | 35008 ft | 489 kts | 141° |
| 2026-04-25 09:34 | 51.77968 | 15.48375 | 35008 ft | 490 kts | 141° |
| 2026-04-25 09:34 | 51.72914 | 15.55786 | 35010 ft | 491 kts | 141° |
| 2026-04-25 09:35 | 51.67876 | 15.63152 | 35006 ft | 493 kts | 141° |
| 2026-04-25 09:35 | 51.62795 | 15.70558 | 35009 ft | 494 kts | 141° |
| 2026-04-25 09:36 | 51.57692 | 15.77974 | 35005 ft | 495 kts | 141° |
| 2026-04-25 09:36 | 51.52579 | 15.85379 | 35003 ft | 495 kts | 142° |
| 2026-04-25 09:37 | 51.47455 | 15.92777 | 35004 ft | 496 kts | 142° |
| 2026-04-25 09:37 | 51.40430 | 16.02867 | 34999 ft | 497 kts | 142° |
| 2026-04-25 09:38 | 51.30122 | 16.17627 | 34996 ft | 497 kts | 142° |
| 2026-04-25 09:38 | 51.23889 | 16.26493 | 34997 ft | 498 kts | 143° |
| 2026-04-25 09:39 | 51.18751 | 16.33784 | 34995 ft | 498 kts | 143° |
| 2026-04-25 09:39 | 51.13570 | 16.41103 | 34989 ft | 498 kts | 143° |
| 2026-04-25 09:40 | 51.05789 | 16.52056 | 34995 ft | 498 kts | 143° |
| 2026-04-25 09:40 | 51.00601 | 16.59349 | 34994 ft | 498 kts | 143° |
| 2026-04-25 09:41 | 50.95403 | 16.66625 | 34994 ft | 498 kts | 143° |
| 2026-04-25 09:41 | 50.90229 | 16.73834 | 34995 ft | 499 kts | 143° |
| 2026-04-25 09:42 | 50.85022 | 16.81078 | 34994 ft | 499 kts | 143° |
| 2026-04-25 09:42 | 50.79798 | 16.88312 | 34993 ft | 498 kts | 143° |
| 2026-04-25 09:43 | 50.74580 | 16.95522 | 34994 ft | 498 kts | 143° |
| 2026-04-25 09:43 | 50.69397 | 17.02663 | 34998 ft | 498 kts | 143° |
| 2026-04-25 09:44 | 50.64173 | 17.09834 | 34990 ft | 498 kts | 143° |
| 2026-04-25 09:44 | 50.58947 | 17.16989 | 34993 ft | 498 kts | 143° |
| 2026-04-25 09:45 | 50.53717 | 17.24125 | 34990 ft | 497 kts | 143° |
| 2026-04-25 09:45 | 50.48490 | 17.31237 | 34996 ft | 497 kts | 143° |
| 2026-04-25 09:46 | 50.43292 | 17.38286 | 34997 ft | 497 kts | 143° |
| 2026-04-25 09:46 | 50.38103 | 17.45458 | 34983 ft | 499 kts | 139° |
| 2026-04-25 09:47 | 50.33165 | 17.53122 | 34992 ft | 500 kts | 139° |
| 2026-04-25 09:47 | 50.29901 | 17.58201 | 34994 ft | 500 kts | 139° |
| 2026-04-25 09:49 | 50.08833 | 17.90670 | 34995 ft | 500 kts | 139° |
| 2026-04-25 09:50 | 50.03825 | 17.98320 | 35000 ft | 499 kts | 140° |
| 2026-04-25 09:50 | 49.98676 | 18.05395 | 35011 ft | 497 kts | 143° |
| 2026-04-25 09:51 | 49.93436 | 18.12385 | 35013 ft | 497 kts | 143° |
| 2026-04-25 09:51 | 49.91123 | 18.15467 | 35014 ft | 496 kts | 143° |
| 2026-04-25 09:52 | 49.88335 | 18.19176 | 35014 ft | 496 kts | 143° |
| 2026-04-25 09:53 | 49.83095 | 18.26142 | 35019 ft | 496 kts | 143° |
| 2026-04-25 09:53 | 49.77858 | 18.33085 | 35019 ft | 496 kts | 143° |
| 2026-04-25 09:54 | 49.72622 | 18.40003 | 35017 ft | 495 kts | 143° |
| 2026-04-25 09:54 | 49.71790 | 18.41098 | 35017 ft | 495 kts | 143° |
| 2026-04-25 09:57 | 49.71098 | 18.42012 | 35016 ft | 495 kts | 143° |
| 2026-04-25 09:57 | 49.65848 | 18.48918 | 35013 ft | 495 kts | 143° |
| 2026-04-25 09:58 | 49.60597 | 18.55804 | 35007 ft | 495 kts | 143° |